sensor_id;sensor_type;location;lat;lon;timestamp;temperature;humidity
22765;DHT22;11549;50.852;3.816;2022-12-18T00:00:07;-3.10;99.90
22765;DHT22;11549;50.852;3.816;2022-12-18T00:02:38;-3.30;99.90
22765;DHT22;11549;50.852;3.816;2022-12-18T00:05:07;-3.20;99.90
22765;DHT22;11549;50.852;3.816;2022-12-18T00:07:35;-3.20;99.90
22765;DHT22;11549;50.852;3.816;2022-12-18T00:10:06;-2.90;99.90
22765;DHT22;11549;50.852;3.816;2022-12-18T00:12:34;-2.80;99.90
22765;DHT22;11549;50.852;3.816;2022-12-18T00:15:03;-2.70;99.90
22765;DHT22;11549;50.852;3.816;2022-12-18T00:17:32;-2.90;99.90
22765;DHT22;11549;50.852;3.816;2022-12-18T00:20:05;-3.10;99.90
22765;DHT22;11549;50.852;3.816;2022-12-18T00:22:33;-3.10;99.90
22765;DHT22;11549;50.852;3.816;2022-12-18T00:25:02;-3.20;99.90
22765;DHT22;11549;50.852;3.816;2022-12-18T00:27:30;-3.30;99.90
22765;DHT22;11549;50.852;3.816;2022-12-18T00:29:59;-3.20;99.90
22765;DHT22;11549;50.852;3.816;2022-12-18T00:32:27;-3.30;99.90
22765;DHT22;11549;50.852;3.816;2022-12-18T00:34:55;-3.20;99.90
22765;DHT22;11549;50.852;3.816;2022-12-18T00:37:25;-3.10;99.90
22765;DHT22;11549;50.852;3.816;2022-12-18T00:39:54;-3.10;99.90
22765;DHT22;11549;50.852;3.816;2022-12-18T00:42:22;-3.00;99.90
22765;DHT22;11549;50.852;3.816;2022-12-18T00:45:09;-3.30;99.90
22765;DHT22;11549;50.852;3.816;2022-12-18T00:47:39;-3.50;99.90
22765;DHT22;11549;50.852;3.816;2022-12-18T00:50:08;-3.30;99.90
22765;DHT22;11549;50.852;3.816;2022-12-18T00:52:38;-3.10;99.90
22765;DHT22;11549;50.852;3.816;2022-12-18T00:55:07;-3.20;99.90
22765;DHT22;11549;50.852;3.816;2022-12-18T00:57:35;-3.30;99.90
22765;DHT22;11549;50.852;3.816;2022-12-18T01:00:06;-3.30;99.90
22765;DHT22;11549;50.852;3.816;2022-12-18T01:02:35;-3.40;99.90
22765;DHT22;11549;50.852;3.816;2022-12-18T01:05:04;-3.40;99.90
22765;DHT22;11549;50.852;3.816;2022-12-18T01:07:32;-3.40;99.90
22765;DHT22;11549;50.852;3.816;2022-12-18T01:10:03;-3.50;99.90
22765;DHT22;11549;50.852;3.816;2022-12-18T01:12:32;-3.50;99.90
22765;DHT22;11549;50.852;3.816;2022-12-18T01:15:00;-3.40;99.90
22765;DHT22;11549;50.852;3.816;2022-12-18T01:17:29;-3.20;99.90
22765;DHT22;11549;50.852;3.816;2022-12-18T01:19:57;-3.10;99.90
22765;DHT22;11549;50.852;3.816;2022-12-18T01:22:25;-3.10;99.90
22765;DHT22;11549;50.852;3.816;2022-12-18T01:24:53;-3.10;99.90
22765;DHT22;11549;50.852;3.816;2022-12-18T01:27:23;-3.00;99.90
22765;DHT22;11549;50.852;3.816;2022-12-18T01:29:52;-3.00;99.90
22765;DHT22;11549;50.852;3.816;2022-12-18T01:32:20;-3.10;99.90
22765;DHT22;11549;50.852;3.816;2022-12-18T01:34:48;-3.40;99.90
22765;DHT22;11549;50.852;3.816;2022-12-18T01:37:17;-3.40;99.90
22765;DHT22;11549;50.852;3.816;2022-12-18T01:39:45;-3.40;99.90
22765;DHT22;11549;50.852;3.816;2022-12-18T01:42:15;-3.40;99.90
22765;DHT22;11549;50.852;3.816;2022-12-18T01:45:08;-3.40;99.90
22765;DHT22;11549;50.852;3.816;2022-12-18T01:47:50;-3.30;99.90
22765;DHT22;11549;50.852;3.816;2022-12-18T01:50:22;-3.30;99.90
22765;DHT22;11549;50.852;3.816;2022-12-18T01:52:53;-3.20;99.90
22765;DHT22;11549;50.852;3.816;2022-12-18T01:55:23;-3.20;99.90
22765;DHT22;11549;50.852;3.816;2022-12-18T01:57:54;-3.40;99.90
22765;DHT22;11549;50.852;3.816;2022-12-18T02:00:26;-3.60;99.90
22765;DHT22;11549;50.852;3.816;2022-12-18T02:02:55;-3.80;99.90
22765;DHT22;11549;50.852;3.816;2022-12-18T02:05:38;-3.70;99.90
22765;DHT22;11549;50.852;3.816;2022-12-18T02:08:12;-3.50;99.90
22765;DHT22;11549;50.852;3.816;2022-12-18T02:10:47;-3.30;99.90
22765;DHT22;11549;50.852;3.816;2022-12-18T02:13:22;-3.20;99.90
22765;DHT22;11549;50.852;3.816;2022-12-18T02:16:01;-3.10;99.90
22765;DHT22;11549;50.852;3.816;2022-12-18T02:18:35;-3.00;99.90
22765;DHT22;11549;50.852;3.816;2022-12-18T02:21:10;-3.00;99.90
22765;DHT22;11549;50.852;3.816;2022-12-18T02:23:49;-2.90;99.90
22765;DHT22;11549;50.852;3.816;2022-12-18T02:26:27;-3.20;99.90
22765;DHT22;11549;50.852;3.816;2022-12-18T02:29:00;-3.50;99.90
22765;DHT22;11549;50.852;3.816;2022-12-18T02:31:43;-3.40;99.90
22765;DHT22;11549;50.852;3.816;2022-12-18T02:34:13;-3.30;99.90
22765;DHT22;11549;50.852;3.816;2022-12-18T02:36:44;-3.20;99.90
22765;DHT22;11549;50.852;3.816;2022-12-18T02:39:14;-3.20;99.90
22765;DHT22;11549;50.852;3.816;2022-12-18T02:41:46;-3.20;99.90
22765;DHT22;11549;50.852;3.816;2022-12-18T02:44:15;-3.40;99.90
22765;DHT22;11549;50.852;3.816;2022-12-18T02:46:46;-3.40;99.90
22765;DHT22;11549;50.852;3.816;2022-12-18T02:49:26;-3.50;99.90
22765;DHT22;11549;50.852;3.816;2022-12-18T02:52:04;-3.60;99.90
22765;DHT22;11549;50.852;3.816;2022-12-18T02:54:45;-3.70;99.90
22765;DHT22;11549;50.852;3.816;2022-12-18T02:57:23;-3.80;99.90
22765;DHT22;11549;50.852;3.816;2022-12-18T02:59:58;-3.80;99.90
22765;DHT22;11549;50.852;3.816;2022-12-18T03:02:31;-4.00;99.90
22765;DHT22;11549;50.852;3.816;2022-12-18T03:05:07;-3.80;99.90
22765;DHT22;11549;50.852;3.816;2022-12-18T03:07:48;-3.80;99.90
22765;DHT22;11549;50.852;3.816;2022-12-18T03:10:21;-3.70;99.90
22765;DHT22;11549;50.852;3.816;2022-12-18T03:12:56;-3.50;99.90
22765;DHT22;11549;50.852;3.816;2022-12-18T03:15:29;-3.50;99.90
22765;DHT22;11549;50.852;3.816;2022-12-18T03:18:01;-3.80;99.90
22765;DHT22;11549;50.852;3.816;2022-12-18T03:20:33;-3.90;99.90
22765;DHT22;11549;50.852;3.816;2022-12-18T03:23:08;-4.00;99.90
22765;DHT22;11549;50.852;3.816;2022-12-18T03:25:40;-4.10;99.90
22765;DHT22;11549;50.852;3.816;2022-12-18T03:28:14;-4.10;99.90
22765;DHT22;11549;50.852;3.816;2022-12-18T03:30:43;-4.00;99.90
22765;DHT22;11549;50.852;3.816;2022-12-18T03:33:16;-3.90;99.90
22765;DHT22;11549;50.852;3.816;2022-12-18T03:35:46;-4.10;99.90
22765;DHT22;11549;50.852;3.816;2022-12-18T03:38:15;-4.20;99.90
22765;DHT22;11549;50.852;3.816;2022-12-18T03:40:51;-4.10;99.90
22765;DHT22;11549;50.852;3.816;2022-12-18T03:43:29;-4.10;99.90
22765;DHT22;11549;50.852;3.816;2022-12-18T03:46:03;-4.00;99.90
22765;DHT22;11549;50.852;3.816;2022-12-18T03:48:38;-3.90;99.90
22765;DHT22;11549;50.852;3.816;2022-12-18T03:51:11;-3.80;99.90
22765;DHT22;11549;50.852;3.816;2022-12-18T03:53:48;-3.80;99.90
22765;DHT22;11549;50.852;3.816;2022-12-18T03:56:18;-3.70;99.90
22765;DHT22;11549;50.852;3.816;2022-12-18T03:58:52;-3.60;99.90
22765;DHT22;11549;50.852;3.816;2022-12-18T04:01:24;-3.70;99.90
22765;DHT22;11549;50.852;3.816;2022-12-18T04:03:54;-3.80;99.90
22765;DHT22;11549;50.852;3.816;2022-12-18T04:06:23;-3.80;99.90
22765;DHT22;11549;50.852;3.816;2022-12-18T04:08:52;-3.70;99.90
22765;DHT22;11549;50.852;3.816;2022-12-18T04:11:21;-3.90;99.90
22765;DHT22;11549;50.852;3.816;2022-12-18T04:13:50;-3.80;99.90
22765;DHT22;11549;50.852;3.816;2022-12-18T04:16:23;-3.80;99.90
22765;DHT22;11549;50.852;3.816;2022-12-18T04:18:52;-3.90;99.90
22765;DHT22;11549;50.852;3.816;2022-12-18T04:21:20;-4.00;99.90
22765;DHT22;11549;50.852;3.816;2022-12-18T04:23:49;-4.10;99.90
22765;DHT22;11549;50.852;3.816;2022-12-18T04:26:18;-4.00;99.90
22765;DHT22;11549;50.852;3.816;2022-12-18T04:28:46;-4.00;99.90
22765;DHT22;11549;50.852;3.816;2022-12-18T04:31:16;-4.00;99.90
22765;DHT22;11549;50.852;3.816;2022-12-18T04:33:44;-3.70;99.90
22765;DHT22;11549;50.852;3.816;2022-12-18T04:36:12;-4.00;99.90
22765;DHT22;11549;50.852;3.816;2022-12-18T04:38:41;-4.30;99.90
22765;DHT22;11549;50.852;3.816;2022-12-18T04:41:09;-4.50;99.90
22765;DHT22;11549;50.852;3.816;2022-12-18T04:43:37;-4.40;99.90
22765;DHT22;11549;50.852;3.816;2022-12-18T04:46:07;-4.20;99.90
22765;DHT22;11549;50.852;3.816;2022-12-18T04:48:37;-4.10;99.90
22765;DHT22;11549;50.852;3.816;2022-12-18T04:51:07;-4.10;99.90
22765;DHT22;11549;50.852;3.816;2022-12-18T04:53:35;-4.20;99.90
22765;DHT22;11549;50.852;3.816;2022-12-18T04:56:06;-4.10;99.90
22765;DHT22;11549;50.852;3.816;2022-12-18T04:58:36;-4.00;99.90
22765;DHT22;11549;50.852;3.816;2022-12-18T05:01:05;-4.10;99.90
22765;DHT22;11549;50.852;3.816;2022-12-18T05:03:34;-4.20;99.90
22765;DHT22;11549;50.852;3.816;2022-12-18T05:06:05;-4.30;99.90
22765;DHT22;11549;50.852;3.816;2022-12-18T05:08:34;-4.30;99.90
22765;DHT22;11549;50.852;3.816;2022-12-18T05:11:04;-4.20;99.90
22765;DHT22;11549;50.852;3.816;2022-12-18T05:13:34;-4.10;99.90
22765;DHT22;11549;50.852;3.816;2022-12-18T05:16:04;-4.00;99.90
22765;DHT22;11549;50.852;3.816;2022-12-18T05:18:33;-4.10;99.90
22765;DHT22;11549;50.852;3.816;2022-12-18T05:21:02;-4.00;99.90
22765;DHT22;11549;50.852;3.816;2022-12-18T05:23:32;-3.90;99.90
22765;DHT22;11549;50.852;3.816;2022-12-18T05:26:03;-3.80;99.90
22765;DHT22;11549;50.852;3.816;2022-12-18T05:28:33;-3.70;99.90
22765;DHT22;11549;50.852;3.816;2022-12-18T05:31:03;-3.60;99.90
22765;DHT22;11549;50.852;3.816;2022-12-18T05:33:33;-3.50;99.90
22765;DHT22;11549;50.852;3.816;2022-12-18T05:36:04;-3.50;99.90
22765;DHT22;11549;50.852;3.816;2022-12-18T05:38:36;-3.50;99.90
22765;DHT22;11549;50.852;3.816;2022-12-18T05:41:05;-3.50;99.90
22765;DHT22;11549;50.852;3.816;2022-12-18T05:43:34;-3.50;99.90
22765;DHT22;11549;50.852;3.816;2022-12-18T05:46:05;-3.50;99.90
22765;DHT22;11549;50.852;3.816;2022-12-18T05:48:33;-3.50;99.90
22765;DHT22;11549;50.852;3.816;2022-12-18T05:51:06;-3.30;99.90
22765;DHT22;11549;50.852;3.816;2022-12-18T05:53:37;-3.50;99.90
22765;DHT22;11549;50.852;3.816;2022-12-18T05:56:07;-3.60;99.90
22765;DHT22;11549;50.852;3.816;2022-12-18T05:58:37;-3.50;99.90
22765;DHT22;11549;50.852;3.816;2022-12-18T06:01:10;-3.50;99.90
22765;DHT22;11549;50.852;3.816;2022-12-18T06:03:39;-3.40;99.90
22765;DHT22;11549;50.852;3.816;2022-12-18T06:06:15;-3.50;99.90
22765;DHT22;11549;50.852;3.816;2022-12-18T06:08:45;-3.70;99.90
22765;DHT22;11549;50.852;3.816;2022-12-18T06:11:16;-4.00;99.90
22765;DHT22;11549;50.852;3.816;2022-12-18T06:13:45;-4.00;99.90
22765;DHT22;11549;50.852;3.816;2022-12-18T06:16:14;-4.10;99.90
22765;DHT22;11549;50.852;3.816;2022-12-18T06:18:42;-4.20;99.90
22765;DHT22;11549;50.852;3.816;2022-12-18T06:21:11;-4.10;99.90
22765;DHT22;11549;50.852;3.816;2022-12-18T06:23:40;-4.00;99.90
22765;DHT22;11549;50.852;3.816;2022-12-18T06:26:12;-4.00;99.90
22765;DHT22;11549;50.852;3.816;2022-12-18T06:28:41;-3.90;99.90
22765;DHT22;11549;50.852;3.816;2022-12-18T06:31:10;-3.90;99.90
22765;DHT22;11549;50.852;3.816;2022-12-18T06:33:38;-4.00;99.90
22765;DHT22;11549;50.852;3.816;2022-12-18T06:36:10;-3.90;99.90
22765;DHT22;11549;50.852;3.816;2022-12-18T06:38:42;-3.80;99.90
22765;DHT22;11549;50.852;3.816;2022-12-18T06:41:13;-3.90;99.90
22765;DHT22;11549;50.852;3.816;2022-12-18T06:43:42;-4.00;99.90
22765;DHT22;11549;50.852;3.816;2022-12-18T06:46:11;-4.00;99.90
22765;DHT22;11549;50.852;3.816;2022-12-18T06:48:40;-3.80;99.90
22765;DHT22;11549;50.852;3.816;2022-12-18T06:51:08;-3.80;99.90
22765;DHT22;11549;50.852;3.816;2022-12-18T06:53:36;-3.70;99.90
22765;DHT22;11549;50.852;3.816;2022-12-18T06:56:07;-3.60;99.90
22765;DHT22;11549;50.852;3.816;2022-12-18T06:58:38;-3.60;99.90
22765;DHT22;11549;50.852;3.816;2022-12-18T07:01:08;-3.80;99.90
22765;DHT22;11549;50.852;3.816;2022-12-18T07:03:37;-3.90;99.90
22765;DHT22;11549;50.852;3.816;2022-12-18T07:06:13;-3.80;99.90
22765;DHT22;11549;50.852;3.816;2022-12-18T07:08:41;-3.80;99.90
22765;DHT22;11549;50.852;3.816;2022-12-18T07:11:10;-3.70;99.90
22765;DHT22;11549;50.852;3.816;2022-12-18T07:13:40;-3.70;99.90
22765;DHT22;11549;50.852;3.816;2022-12-18T07:16:10;-3.80;99.90
22765;DHT22;11549;50.852;3.816;2022-12-18T07:18:48;-3.70;99.90
22765;DHT22;11549;50.852;3.816;2022-12-18T07:21:18;-3.60;99.90
22765;DHT22;11549;50.852;3.816;2022-12-18T07:23:46;-3.50;99.90
22765;DHT22;11549;50.852;3.816;2022-12-18T07:26:17;-3.40;99.90
22765;DHT22;11549;50.852;3.816;2022-12-18T07:28:47;-3.40;99.90
22765;DHT22;11549;50.852;3.816;2022-12-18T07:31:18;-3.40;99.90
22765;DHT22;11549;50.852;3.816;2022-12-18T07:33:48;-3.30;99.90
22765;DHT22;11549;50.852;3.816;2022-12-18T07:36:16;-3.30;99.90
22765;DHT22;11549;50.852;3.816;2022-12-18T07:38:46;-3.30;99.90
22765;DHT22;11549;50.852;3.816;2022-12-18T07:41:17;-3.30;99.90
22765;DHT22;11549;50.852;3.816;2022-12-18T07:43:47;-3.20;99.90
22765;DHT22;11549;50.852;3.816;2022-12-18T07:46:16;-3.20;99.90
22765;DHT22;11549;50.852;3.816;2022-12-18T07:48:44;-3.30;99.90
22765;DHT22;11549;50.852;3.816;2022-12-18T07:51:16;-3.30;99.90
22765;DHT22;11549;50.852;3.816;2022-12-18T07:53:45;-3.30;99.90
22765;DHT22;11549;50.852;3.816;2022-12-18T07:56:18;-3.30;99.90
22765;DHT22;11549;50.852;3.816;2022-12-18T07:58:58;-3.30;99.90
22765;DHT22;11549;50.852;3.816;2022-12-18T08:01:27;-3.40;99.90
22765;DHT22;11549;50.852;3.816;2022-12-18T08:03:56;-3.40;99.90
22765;DHT22;11549;50.852;3.816;2022-12-18T08:06:25;-3.40;99.90
22765;DHT22;11549;50.852;3.816;2022-12-18T08:08:54;-3.30;99.90
22765;DHT22;11549;50.852;3.816;2022-12-18T08:11:24;-3.20;99.90
22765;DHT22;11549;50.852;3.816;2022-12-18T08:13:53;-3.00;99.90
22765;DHT22;11549;50.852;3.816;2022-12-18T08:16:23;-2.60;99.90
22765;DHT22;11549;50.852;3.816;2022-12-18T08:18:52;-2.40;99.90
22765;DHT22;11549;50.852;3.816;2022-12-18T08:21:23;-2.30;99.90
22765;DHT22;11549;50.852;3.816;2022-12-18T08:23:54;-2.30;99.90
22765;DHT22;11549;50.852;3.816;2022-12-18T08:26:24;-1.90;99.90
22765;DHT22;11549;50.852;3.816;2022-12-18T08:28:53;-1.50;99.90
22765;DHT22;11549;50.852;3.816;2022-12-18T08:31:24;-1.30;99.90
22765;DHT22;11549;50.852;3.816;2022-12-18T08:33:54;-1.20;99.90
22765;DHT22;11549;50.852;3.816;2022-12-18T08:36:23;-1.10;99.90
22765;DHT22;11549;50.852;3.816;2022-12-18T08:38:53;-1.10;99.90
22765;DHT22;11549;50.852;3.816;2022-12-18T08:41:22;-1.20;99.90
22765;DHT22;11549;50.852;3.816;2022-12-18T08:43:50;-1.20;99.90
22765;DHT22;11549;50.852;3.816;2022-12-18T08:46:39;-1.40;99.90
22765;DHT22;11549;50.852;3.816;2022-12-18T08:49:09;-1.50;99.90
22765;DHT22;11549;50.852;3.816;2022-12-18T08:51:38;-1.70;99.90
22765;DHT22;11549;50.852;3.816;2022-12-18T08:54:07;-1.60;99.90
22765;DHT22;11549;50.852;3.816;2022-12-18T08:56:35;-1.70;99.90
22765;DHT22;11549;50.852;3.816;2022-12-18T08:59:04;-1.90;99.90
22765;DHT22;11549;50.852;3.816;2022-12-18T09:01:32;-2.20;99.90
22765;DHT22;11549;50.852;3.816;2022-12-18T09:04:02;-2.30;99.90
22765;DHT22;11549;50.852;3.816;2022-12-18T09:06:33;-2.30;99.90
22765;DHT22;11549;50.852;3.816;2022-12-18T09:09:02;-2.30;99.90
22765;DHT22;11549;50.852;3.816;2022-12-18T09:11:32;-2.50;99.90
22765;DHT22;11549;50.852;3.816;2022-12-18T09:14:01;-2.60;99.90
22765;DHT22;11549;50.852;3.816;2022-12-18T09:16:31;-2.50;99.90
22765;DHT22;11549;50.852;3.816;2022-12-18T09:19:04;-2.60;99.90
22765;DHT22;11549;50.852;3.816;2022-12-18T09:21:34;-2.50;99.90
22765;DHT22;11549;50.852;3.816;2022-12-18T09:24:12;-2.40;99.90
22765;DHT22;11549;50.852;3.816;2022-12-18T09:26:42;-2.30;99.90
22765;DHT22;11549;50.852;3.816;2022-12-18T09:29:13;-2.40;99.90
22765;DHT22;11549;50.852;3.816;2022-12-18T09:31:44;-2.40;99.90
22765;DHT22;11549;50.852;3.816;2022-12-18T09:34:14;-2.40;99.90
22765;DHT22;11549;50.852;3.816;2022-12-18T09:36:43;-2.40;99.90
22765;DHT22;11549;50.852;3.816;2022-12-18T09:39:13;-2.30;99.90
22765;DHT22;11549;50.852;3.816;2022-12-18T09:41:46;-2.20;99.90
22765;DHT22;11549;50.852;3.816;2022-12-18T09:44:21;-2.10;99.90
22765;DHT22;11549;50.852;3.816;2022-12-18T09:46:56;-2.10;99.90
22765;DHT22;11549;50.852;3.816;2022-12-18T09:49:29;-2.00;99.90
22765;DHT22;11549;50.852;3.816;2022-12-18T09:52:02;-2.00;99.90
22765;DHT22;11549;50.852;3.816;2022-12-18T09:54:36;-1.90;99.90
22765;DHT22;11549;50.852;3.816;2022-12-18T09:57:09;-2.00;99.90
22765;DHT22;11549;50.852;3.816;2022-12-18T09:59:40;-1.90;99.90
22765;DHT22;11549;50.852;3.816;2022-12-18T10:02:20;-1.90;99.90
22765;DHT22;11549;50.852;3.816;2022-12-18T10:05:02;-1.80;99.90
22765;DHT22;11549;50.852;3.816;2022-12-18T10:10:26;-1.60;99.90
22765;DHT22;11549;50.852;3.816;2022-12-18T10:13:06;-1.60;99.90
22765;DHT22;11549;50.852;3.816;2022-12-18T10:15:46;-1.40;99.90
22765;DHT22;11549;50.852;3.816;2022-12-18T10:18:27;-1.40;99.90
22765;DHT22;11549;50.852;3.816;2022-12-18T10:21:03;-1.30;99.90
22765;DHT22;11549;50.852;3.816;2022-12-18T10:23:42;-1.20;99.90
22765;DHT22;11549;50.852;3.816;2022-12-18T10:26:14;-1.20;99.90
22765;DHT22;11549;50.852;3.816;2022-12-18T10:28:44;-1.30;99.90
22765;DHT22;11549;50.852;3.816;2022-12-18T10:31:16;-1.30;99.90
22765;DHT22;11549;50.852;3.816;2022-12-18T10:33:45;-1.40;99.90
22765;DHT22;11549;50.852;3.816;2022-12-18T10:36:15;-1.40;99.90
22765;DHT22;11549;50.852;3.816;2022-12-18T10:38:43;-1.40;99.90
22765;DHT22;11549;50.852;3.816;2022-12-18T10:41:25;-1.40;99.90
22765;DHT22;11549;50.852;3.816;2022-12-18T10:44:14;-1.50;99.90
22765;DHT22;11549;50.852;3.816;2022-12-18T10:46:44;-1.40;99.90
22765;DHT22;11549;50.852;3.816;2022-12-18T10:49:23;-1.30;99.90
22765;DHT22;11549;50.852;3.816;2022-12-18T10:52:05;-1.20;99.90
22765;DHT22;11549;50.852;3.816;2022-12-18T10:54:35;-1.10;99.90
22765;DHT22;11549;50.852;3.816;2022-12-18T10:57:20;-1.00;99.90
22765;DHT22;11549;50.852;3.816;2022-12-18T10:59:59;-1.10;99.90
22765;DHT22;11549;50.852;3.816;2022-12-18T11:02:34;-1.00;99.90
22765;DHT22;11549;50.852;3.816;2022-12-18T11:05:25;-0.90;99.90
22765;DHT22;11549;50.852;3.816;2022-12-18T11:07:56;-0.90;99.90
22765;DHT22;11549;50.852;3.816;2022-12-18T11:10:28;-0.80;99.90
22765;DHT22;11549;50.852;3.816;2022-12-18T11:13:10;-0.70;99.90
22765;DHT22;11549;50.852;3.816;2022-12-18T11:15:40;-0.80;99.90
22765;DHT22;11549;50.852;3.816;2022-12-18T11:18:17;-0.60;99.90
22765;DHT22;11549;50.852;3.816;2022-12-18T11:20:52;-0.70;99.90
22765;DHT22;11549;50.852;3.816;2022-12-18T11:23:26;-0.70;99.90
22765;DHT22;11549;50.852;3.816;2022-12-18T11:25:57;-0.80;99.90
22765;DHT22;11549;50.852;3.816;2022-12-18T11:28:45;-0.70;99.90
22765;DHT22;11549;50.852;3.816;2022-12-18T11:31:20;-0.80;99.90
22765;DHT22;11549;50.852;3.816;2022-12-18T11:33:54;-0.70;99.90
22765;DHT22;11549;50.852;3.816;2022-12-18T11:36:45;-0.70;99.90
22765;DHT22;11549;50.852;3.816;2022-12-18T11:39:19;-0.60;99.90
22765;DHT22;11549;50.852;3.816;2022-12-18T11:41:52;-0.50;99.90
22765;DHT22;11549;50.852;3.816;2022-12-18T11:44:45;-0.50;99.90
22765;DHT22;11549;50.852;3.816;2022-12-18T11:47:21;-0.50;99.90
22765;DHT22;11549;50.852;3.816;2022-12-18T11:49:55;-0.60;99.90
22765;DHT22;11549;50.852;3.816;2022-12-18T11:52:25;-0.60;99.90
22765;DHT22;11549;50.852;3.816;2022-12-18T11:55:00;-0.60;99.90
22765;DHT22;11549;50.852;3.816;2022-12-18T11:57:36;-0.30;99.90
22765;DHT22;11549;50.852;3.816;2022-12-18T12:00:12;-0.60;99.90
22765;DHT22;11549;50.852;3.816;2022-12-18T12:03:02;-0.40;99.90
22765;DHT22;11549;50.852;3.816;2022-12-18T12:05:43;-0.30;99.90
22765;DHT22;11549;50.852;3.816;2022-12-18T12:08:20;-0.20;99.90
22765;DHT22;11549;50.852;3.816;2022-12-18T12:11:00;-0.30;99.90
22765;DHT22;11549;50.852;3.816;2022-12-18T12:13:41;-0.30;99.90
22765;DHT22;11549;50.852;3.816;2022-12-18T12:16:17;-0.20;99.90
22765;DHT22;11549;50.852;3.816;2022-12-18T12:18:57;-0.20;99.90
22765;DHT22;11549;50.852;3.816;2022-12-18T12:21:36;-0.10;99.90
22765;DHT22;11549;50.852;3.816;2022-12-18T12:24:22;0.00;99.90
22765;DHT22;11549;50.852;3.816;2022-12-18T12:27:02;-0.10;99.90
22765;DHT22;11549;50.852;3.816;2022-12-18T12:29:42;-0.10;99.90
22765;DHT22;11549;50.852;3.816;2022-12-18T12:32:25;-0.20;99.90
22765;DHT22;11549;50.852;3.816;2022-12-18T12:35:09;-0.20;99.90
22765;DHT22;11549;50.852;3.816;2022-12-18T12:37:49;-0.20;99.90
22765;DHT22;11549;50.852;3.816;2022-12-18T12:40:24;-0.10;99.90
22765;DHT22;11549;50.852;3.816;2022-12-18T12:43:31;0.00;99.90
22765;DHT22;11549;50.852;3.816;2022-12-18T12:46:03;0.00;99.90
22765;DHT22;11549;50.852;3.816;2022-12-18T12:48:40;0.10;99.90
22765;DHT22;11549;50.852;3.816;2022-12-18T12:51:15;0.10;99.90
22765;DHT22;11549;50.852;3.816;2022-12-18T12:53:44;0.10;99.90
22765;DHT22;11549;50.852;3.816;2022-12-18T12:56:15;0.20;99.90
22765;DHT22;11549;50.852;3.816;2022-12-18T12:58:54;0.40;99.90
22765;DHT22;11549;50.852;3.816;2022-12-18T13:01:32;0.40;99.90
22765;DHT22;11549;50.852;3.816;2022-12-18T13:04:12;0.30;99.90
22765;DHT22;11549;50.852;3.816;2022-12-18T13:06:50;0.30;99.90
22765;DHT22;11549;50.852;3.816;2022-12-18T13:09:22;0.40;99.90
22765;DHT22;11549;50.852;3.816;2022-12-18T13:11:51;0.60;99.90
22765;DHT22;11549;50.852;3.816;2022-12-18T13:14:39;0.60;99.90
22765;DHT22;11549;50.852;3.816;2022-12-18T13:17:28;0.60;99.90
22765;DHT22;11549;50.852;3.816;2022-12-18T13:20:11;0.70;99.90
22765;DHT22;11549;50.852;3.816;2022-12-18T13:22:45;0.70;99.90
22765;DHT22;11549;50.852;3.816;2022-12-18T13:25:35;0.70;99.90
22765;DHT22;11549;50.852;3.816;2022-12-18T13:28:11;0.80;99.90
22765;DHT22;11549;50.852;3.816;2022-12-18T13:30:53;0.70;99.90
22765;DHT22;11549;50.852;3.816;2022-12-18T13:33:41;0.80;99.90
22765;DHT22;11549;50.852;3.816;2022-12-18T13:36:32;0.80;99.90
22765;DHT22;11549;50.852;3.816;2022-12-18T13:39:32;0.80;99.90
22765;DHT22;11549;50.852;3.816;2022-12-18T13:45:49;0.90;99.90
22765;DHT22;11549;50.852;3.816;2022-12-18T13:48:30;0.90;99.90
22765;DHT22;11549;50.852;3.816;2022-12-18T13:51:02;0.80;99.90
22765;DHT22;11549;50.852;3.816;2022-12-18T13:53:36;0.90;99.90
22765;DHT22;11549;50.852;3.816;2022-12-18T13:56:07;0.80;99.90
22765;DHT22;11549;50.852;3.816;2022-12-18T13:58:35;0.70;99.90
22765;DHT22;11549;50.852;3.816;2022-12-18T14:01:05;0.60;99.90
22765;DHT22;11549;50.852;3.816;2022-12-18T14:03:35;0.50;99.90
22765;DHT22;11549;50.852;3.816;2022-12-18T14:06:06;0.40;99.90
22765;DHT22;11549;50.852;3.816;2022-12-18T14:08:38;0.50;99.90
22765;DHT22;11549;50.852;3.816;2022-12-18T14:11:19;0.40;99.90
22765;DHT22;11549;50.852;3.816;2022-12-18T14:13:49;0.30;99.90
22765;DHT22;11549;50.852;3.816;2022-12-18T14:16:18;0.50;99.90
22765;DHT22;11549;50.852;3.816;2022-12-18T14:18:52;0.40;99.90
22765;DHT22;11549;50.852;3.816;2022-12-18T14:21:31;0.40;99.90
22765;DHT22;11549;50.852;3.816;2022-12-18T14:24:06;0.30;99.90
22765;DHT22;11549;50.852;3.816;2022-12-18T14:26:40;0.30;99.90
22765;DHT22;11549;50.852;3.816;2022-12-18T14:29:21;0.40;99.90
22765;DHT22;11549;50.852;3.816;2022-12-18T14:32:10;0.30;99.90
22765;DHT22;11549;50.852;3.816;2022-12-18T14:34:46;0.20;99.90
22765;DHT22;11549;50.852;3.816;2022-12-18T14:37:17;0.20;99.90
22765;DHT22;11549;50.852;3.816;2022-12-18T14:39:56;0.10;99.90
22765;DHT22;11549;50.852;3.816;2022-12-18T14:42:25;0.10;99.90
22765;DHT22;11549;50.852;3.816;2022-12-18T14:45:33;0.20;99.90
22765;DHT22;11549;50.852;3.816;2022-12-18T14:48:11;0.20;99.90
22765;DHT22;11549;50.852;3.816;2022-12-18T14:50:55;0.20;99.90
22765;DHT22;11549;50.852;3.816;2022-12-18T14:53:36;0.20;99.90
22765;DHT22;11549;50.852;3.816;2022-12-18T14:56:15;0.30;99.90
22765;DHT22;11549;50.852;3.816;2022-12-18T14:58:46;0.30;99.90
22765;DHT22;11549;50.852;3.816;2022-12-18T15:01:19;0.30;99.90
22765;DHT22;11549;50.852;3.816;2022-12-18T15:03:50;0.20;99.90
22765;DHT22;11549;50.852;3.816;2022-12-18T15:06:27;0.20;99.90
22765;DHT22;11549;50.852;3.816;2022-12-18T15:08:56;0.30;99.90
22765;DHT22;11549;50.852;3.816;2022-12-18T15:11:27;0.30;99.90
22765;DHT22;11549;50.852;3.816;2022-12-18T15:13:58;0.20;99.90
22765;DHT22;11549;50.852;3.816;2022-12-18T15:16:27;0.30;99.90
22765;DHT22;11549;50.852;3.816;2022-12-18T15:18:56;0.30;99.90
22765;DHT22;11549;50.852;3.816;2022-12-18T15:21:25;0.30;99.90
22765;DHT22;11549;50.852;3.816;2022-12-18T15:23:57;0.20;99.90
22765;DHT22;11549;50.852;3.816;2022-12-18T15:26:25;0.30;99.90
22765;DHT22;11549;50.852;3.816;2022-12-18T15:29:05;0.40;99.90
22765;DHT22;11549;50.852;3.816;2022-12-18T15:31:41;0.40;99.90
22765;DHT22;11549;50.852;3.816;2022-12-18T15:34:12;0.40;99.90
22765;DHT22;11549;50.852;3.816;2022-12-18T15:36:43;0.40;99.90
22765;DHT22;11549;50.852;3.816;2022-12-18T15:39:12;0.20;99.90
22765;DHT22;11549;50.852;3.816;2022-12-18T15:41:40;0.20;99.90
22765;DHT22;11549;50.852;3.816;2022-12-18T15:44:29;0.20;99.90
22765;DHT22;11549;50.852;3.816;2022-12-18T15:46:56;0.20;99.90
22765;DHT22;11549;50.852;3.816;2022-12-18T15:49:25;0.30;99.90
22765;DHT22;11549;50.852;3.816;2022-12-18T15:51:57;0.20;99.90
22765;DHT22;11549;50.852;3.816;2022-12-18T15:54:26;0.20;99.90
22765;DHT22;11549;50.852;3.816;2022-12-18T15:57:12;0.20;99.90
22765;DHT22;11549;50.852;3.816;2022-12-18T15:59:54;0.40;99.90
22765;DHT22;11549;50.852;3.816;2022-12-18T16:02:26;0.50;99.90
22765;DHT22;11549;50.852;3.816;2022-12-18T16:04:55;0.50;99.90
22765;DHT22;11549;50.852;3.816;2022-12-18T16:07:25;0.60;99.90
22765;DHT22;11549;50.852;3.816;2022-12-18T16:09:56;0.50;99.90
22765;DHT22;11549;50.852;3.816;2022-12-18T16:12:28;0.50;99.90
22765;DHT22;11549;50.852;3.816;2022-12-18T16:14:57;0.50;99.90
22765;DHT22;11549;50.852;3.816;2022-12-18T16:17:25;0.50;99.90